createdAt,value
2023-04-23T00:02:26.864Z,99913.22
2023-04-23T00:04:54.761Z,99902.53
2023-04-23T00:07:22.223Z,99914.13
2023-04-23T00:09:52.867Z,99913.75
2023-04-23T00:12:20.767Z,99919.50
2023-04-23T00:14:48.552Z,99928.19
2023-04-23T00:17:15.689Z,99928.72
2023-04-23T00:19:42.986Z,99941.13
2023-04-23T00:22:10.480Z,99927.22
2023-04-23T00:24:39.283Z,99930.47
2023-04-23T00:27:06.556Z,99933.13
2023-04-23T00:29:34.179Z,99938.34
2023-04-23T00:32:03.136Z,99947.81
2023-04-23T00:34:30.961Z,99946.75
2023-04-23T00:36:57.922Z,99940.66
2023-04-23T00:39:25.031Z,99937.34
2023-04-23T00:41:52.173Z,99942.81
2023-04-23T00:44:20.750Z,99954.81
2023-04-23T00:46:48.175Z,99948.41
2023-04-23T00:49:15.564Z,99948.03
2023-04-23T00:51:42.903Z,99949.31
2023-04-23T00:54:10.275Z,99951.00
2023-04-23T00:56:37.446Z,99948.28
2023-04-23T00:59:04.754Z,99946.13
2023-04-23T01:01:33.086Z,99946.00
2023-04-23T01:04:00.852Z,99945.13
2023-04-23T01:06:28.617Z,99949.41
2023-04-23T01:08:56.035Z,99950.50
2023-04-23T01:11:23.610Z,99950.34
2023-04-23T01:13:50.654Z,99944.38
2023-04-23T01:16:19.223Z,99941.13
2023-04-23T01:18:46.744Z,99947.38
2023-04-23T01:21:14.737Z,99947.19
2023-04-23T01:23:41.900Z,99943.25
2023-04-23T01:26:10.585Z,99948.31
2023-04-23T01:28:37.587Z,99941.22
2023-04-23T01:31:05.237Z,99939.59
2023-04-23T01:33:32.556Z,99947.66
2023-04-23T01:35:59.691Z,99951.06
2023-04-23T01:38:27.216Z,99945.50
2023-04-23T01:40:54.419Z,99947.38
2023-04-23T01:43:22.697Z,99948.28
2023-04-23T01:45:50.064Z,99946.88
2023-04-23T01:48:17.751Z,99949.56
2023-04-23T01:50:45.108Z,99953.22
2023-04-23T01:53:12.655Z,99945.00
2023-04-23T01:55:40.115Z,99946.47
2023-04-23T01:58:07.804Z,99953.81
2023-04-23T02:00:34.968Z,99948.09
2023-04-23T02:03:02.816Z,99940.81
2023-04-23T02:05:30.221Z,99946.84
2023-04-23T02:07:57.946Z,99934.13
2023-04-23T02:10:25.746Z,99934.72
2023-04-23T02:12:53.185Z,99929.78
2023-04-23T02:15:21.525Z,99933.38
2023-04-23T02:17:51.800Z,99934.41
2023-04-23T02:20:19.258Z,99928.66
2023-04-23T02:22:46.891Z,99930.38
2023-04-23T02:25:18.001Z,99931.19
2023-04-23T02:27:45.565Z,99926.25
2023-04-23T02:30:13.361Z,99917.56
2023-04-23T02:32:41.470Z,99922.78
2023-04-23T02:35:10.419Z,99920.00
2023-04-23T02:37:37.544Z,99924.50
2023-04-23T02:40:06.290Z,99924.53
2023-04-23T02:42:33.898Z,99931.09
2023-04-23T02:45:01.092Z,99926.50
2023-04-23T02:47:31.272Z,99921.63
2023-04-23T02:49:58.917Z,99922.53
2023-04-23T02:52:26.606Z,99914.69
2023-04-23T02:54:54.146Z,99917.22
2023-04-23T02:57:21.943Z,99920.31
2023-04-23T02:59:50.023Z,99926.91
2023-04-23T03:02:20.720Z,99920.25
2023-04-23T03:04:48.319Z,99920.22
2023-04-23T03:07:17.296Z,99923.78
2023-04-23T03:09:44.447Z,99915.06
2023-04-23T03:12:11.943Z,99918.78
2023-04-23T03:14:39.717Z,99907.69
2023-04-23T03:17:07.180Z,99904.47
2023-04-23T03:19:35.337Z,99900.81
2023-04-23T03:22:05.667Z,99892.19
2023-04-23T03:24:33.606Z,99899.25
2023-04-23T03:27:00.969Z,99887.41
2023-04-23T03:29:28.428Z,99895.78
2023-04-23T03:31:56.656Z,99887.25
2023-04-23T03:34:23.859Z,99882.63
2023-04-23T03:36:51.280Z,99886.22
2023-04-23T03:39:19.076Z,99885.63
2023-04-23T03:41:52.620Z,99873.75
2023-04-23T03:44:25.135Z,99880.59
2023-04-23T03:46:52.665Z,99875.47
2023-04-23T03:49:21.052Z,99872.69
2023-04-23T03:51:48.208Z,99876.06
2023-04-23T03:54:16.128Z,99873.47
2023-04-23T03:57:03.395Z,99873.31
2023-04-23T03:59:35.731Z,99865.59
2023-04-23T04:02:06.074Z,99869.78
2023-04-23T04:04:33.969Z,99866.53
2023-04-23T04:07:01.151Z,99856.00
2023-04-23T04:09:28.913Z,99854.25
2023-04-23T04:12:01.355Z,99859.13
2023-04-23T04:14:29.038Z,99850.69
2023-04-23T04:16:56.695Z,99845.91
2023-04-23T04:19:23.840Z,99844.75
2023-04-23T04:21:53.531Z,99844.50
2023-04-23T04:24:22.533Z,99837.84
2023-04-23T04:26:52.387Z,99839.13
2023-04-23T04:29:21.431Z,99830.19
2023-04-23T04:31:48.558Z,99826.25
2023-04-23T04:34:18.008Z,99824.34
2023-04-23T04:36:45.746Z,99824.41
2023-04-23T04:39:14.585Z,99821.16
2023-04-23T04:41:42.900Z,99818.81
2023-04-23T04:44:10.338Z,99815.91
2023-04-23T04:46:40.265Z,99806.34
2023-04-23T04:49:08.856Z,99815.75
2023-04-23T04:51:36.999Z,99813.81
2023-04-23T04:54:04.582Z,99811.09
2023-04-23T04:56:32.042Z,99802.63
2023-04-23T04:58:59.644Z,99804.28
2023-04-23T05:01:28.490Z,99800.19
2023-04-23T05:03:56.162Z,99796.38
2023-04-23T05:06:23.516Z,99786.94
2023-04-23T05:08:51.491Z,99787.41
2023-04-23T05:11:19.619Z,99780.44
2023-04-23T05:13:47.523Z,99778.88
2023-04-23T05:16:14.633Z,99769.34
2023-04-23T05:18:42.374Z,99775.78
2023-04-23T05:21:09.516Z,99773.16
2023-04-23T05:23:37.258Z,99779.72
2023-04-23T05:26:04.630Z,99767.84
2023-04-23T05:28:31.989Z,99765.72
2023-04-23T05:30:59.174Z,99765.50
2023-04-23T05:33:30.646Z,99761.50
2023-04-23T05:36:00.651Z,99758.47
2023-04-23T05:38:27.998Z,99759.53
2023-04-23T05:40:55.011Z,99753.88
2023-04-23T05:43:22.100Z,99753.00
2023-04-23T05:45:49.452Z,99746.91
2023-04-23T05:48:16.800Z,99751.44
2023-04-23T05:50:44.240Z,99742.63
2023-04-23T05:53:11.320Z,99738.81
2023-04-23T05:55:38.468Z,99743.19
2023-04-23T05:58:06.015Z,99740.25
2023-04-23T06:00:35.193Z,99738.81
2023-04-23T06:03:02.234Z,99742.81
2023-04-23T06:05:29.986Z,99734.44
2023-04-23T06:07:57.514Z,99728.41
2023-04-23T06:10:24.775Z,99726.75
2023-04-23T06:12:53.769Z,99713.63
2023-04-23T06:15:21.226Z,99725.00
2023-04-23T06:17:48.272Z,99716.84
2023-04-23T06:20:15.544Z,99720.41
2023-04-23T06:22:42.580Z,99713.50
2023-04-23T06:25:10.158Z,99712.81
2023-04-23T06:27:37.023Z,99710.69
2023-04-23T06:30:11.732Z,99702.09
2023-04-23T06:32:39.260Z,99694.78
2023-04-23T06:35:07.307Z,99699.34
2023-04-23T06:37:35.609Z,99697.81
2023-04-23T06:40:03.081Z,99697.59
2023-04-23T06:42:30.752Z,99690.47
2023-04-23T06:45:18.238Z,99697.97
2023-04-23T06:47:45.799Z,99691.84
2023-04-23T06:50:13.477Z,99691.38
2023-04-23T06:52:40.940Z,99686.78
2023-04-23T06:55:08.747Z,99689.03
2023-04-23T06:57:36.423Z,99677.09
2023-04-23T07:00:06.852Z,99677.09
2023-04-23T07:02:38.347Z,99678.78
2023-04-23T07:05:05.696Z,99682.53
2023-04-23T07:07:33.891Z,99675.91
2023-04-23T07:10:00.988Z,99669.13
2023-04-23T07:12:28.215Z,99665.69
2023-04-23T07:14:56.029Z,99670.94
2023-04-23T07:17:23.103Z,99660.50
2023-04-23T07:19:50.348Z,99660.50
2023-04-23T07:22:17.813Z,99658.41
2023-04-23T07:24:45.231Z,99660.66
2023-04-23T07:27:12.897Z,99649.38
2023-04-23T07:29:40.314Z,99659.78
2023-04-23T07:32:07.761Z,99648.09
2023-04-23T07:34:38.102Z,99652.31
2023-04-23T07:37:06.257Z,99643.72
2023-04-23T07:39:33.469Z,99643.88
2023-04-23T07:42:02.298Z,99638.81
2023-04-23T07:44:29.814Z,99634.16
2023-04-23T07:46:56.980Z,99634.31
2023-04-23T07:49:24.689Z,99620.84
2023-04-23T07:51:52.274Z,99619.59
2023-04-23T07:54:19.924Z,99624.56
2023-04-23T07:56:47.078Z,99618.91
2023-04-23T07:59:14.399Z,99620.94
2023-04-23T08:01:42.185Z,99611.34
2023-04-23T08:04:09.887Z,99607.34
2023-04-23T08:06:37.559Z,99599.19
2023-04-23T08:09:06.609Z,99598.81
2023-04-23T08:11:33.968Z,99596.38
2023-04-23T08:14:03.827Z,99592.25
2023-04-23T08:16:31.474Z,99593.41
2023-04-23T08:19:05.530Z,99594.91
2023-04-23T08:21:35.268Z,99582.00
2023-04-23T08:24:05.161Z,99572.84
2023-04-23T08:26:32.510Z,99572.16
2023-04-23T08:29:02.921Z,99567.16
2023-04-23T08:31:30.466Z,99567.41
2023-04-23T08:33:57.916Z,99564.69
2023-04-23T08:36:26.447Z,99567.53
2023-04-23T08:38:53.829Z,99565.66
2023-04-23T08:41:22.691Z,99559.84
2023-04-23T08:44:19.241Z,99556.75
2023-04-23T08:46:46.329Z,99551.94
2023-04-23T08:49:17.061Z,99549.13
2023-04-23T08:51:52.704Z,99541.75
2023-04-23T08:54:29.362Z,99538.13
2023-04-23T08:56:57.910Z,99533.91
2023-04-23T08:59:30.516Z,99532.31
2023-04-23T09:01:59.500Z,99521.28
2023-04-23T09:04:26.930Z,99523.56
2023-04-23T09:06:55.585Z,99528.94
2023-04-23T09:09:23.866Z,99526.41
2023-04-23T09:11:52.278Z,99527.28
2023-04-23T09:14:24.871Z,99516.41
2023-04-23T09:16:52.523Z,99508.84
2023-04-23T09:19:19.667Z,99511.09
2023-04-23T09:21:46.966Z,99508.78
2023-04-23T09:24:17.569Z,99501.44
2023-04-23T09:26:46.472Z,99510.81
2023-04-23T09:29:18.309Z,99504.91
2023-04-23T09:31:50.167Z,99505.13
2023-04-23T09:34:17.981Z,99499.47
2023-04-23T09:36:45.608Z,99493.44
2023-04-23T09:39:17.887Z,99496.63
2023-04-23T09:41:48.227Z,99487.47
2023-04-23T09:44:19.304Z,99484.81
2023-04-23T09:46:46.702Z,99484.06
2023-04-23T09:49:15.231Z,99478.84
2023-04-23T09:51:45.222Z,99479.56
2023-04-23T09:54:23.155Z,99477.28
2023-04-23T09:56:53.908Z,99471.88
2023-04-23T09:59:47.039Z,99472.31
2023-04-23T10:02:12.998Z,99472.31
2023-04-23T10:04:40.563Z,99473.97
2023-04-23T10:07:19.837Z,99461.47
2023-04-23T10:09:47.943Z,99472.09
2023-04-23T10:14:46.866Z,99457.31
2023-04-23T10:17:13.932Z,99461.28
2023-04-23T10:19:43.193Z,99456.91
2023-04-23T10:22:19.381Z,99453.97
2023-04-23T10:24:49.934Z,99454.66
2023-04-23T10:27:30.716Z,99458.06
2023-04-23T10:30:01.103Z,99456.06
2023-04-23T10:32:29.629Z,99456.47
2023-04-23T10:34:57.339Z,99445.03
2023-04-23T10:37:24.483Z,99452.09
2023-04-23T10:39:54.966Z,99445.47
2023-04-23T10:42:22.790Z,99455.50
2023-04-23T10:44:59.564Z,99446.78
2023-04-23T10:47:30.734Z,99450.91
2023-04-23T10:49:57.978Z,99452.78
2023-04-23T10:52:26.163Z,99447.81
2023-04-23T10:54:57.876Z,99439.31
2023-04-23T10:57:25.508Z,99436.66
2023-04-23T10:59:54.145Z,99450.00
2023-04-23T11:02:23.277Z,99439.38
2023-04-23T11:05:03.434Z,99431.53
2023-04-23T11:07:32.367Z,99432.19
2023-04-23T11:10:00.467Z,99434.31
2023-04-23T11:12:27.337Z,99428.06
2023-04-23T11:14:54.998Z,99422.03
2023-04-23T11:17:43.063Z,99420.00
2023-04-23T11:20:20.411Z,99425.06
2023-04-23T11:22:48.658Z,99414.84
2023-04-23T11:25:23.637Z,99419.91
2023-04-23T11:27:51.779Z,99411.00
2023-04-23T11:30:20.537Z,99409.97
2023-04-23T11:32:52.597Z,99407.91
2023-04-23T11:35:37.603Z,99409.19
2023-04-23T11:38:08.621Z,99405.63
2023-04-23T11:40:35.772Z,99403.22
2023-04-23T11:43:04.080Z,99403.06
2023-04-23T11:45:31.489Z,99396.84
2023-04-23T11:48:00.503Z,99410.66
2023-04-23T11:50:33.208Z,99406.22
2023-04-23T11:53:09.883Z,99408.50
2023-04-23T11:55:38.187Z,99407.75
2023-04-23T11:58:05.870Z,99391.72
2023-04-23T12:00:32.996Z,99397.16
2023-04-23T12:03:01.694Z,99395.72
2023-04-23T12:05:35.100Z,99388.50
2023-04-23T12:08:12.513Z,99390.59
2023-04-23T12:10:52.967Z,99382.94
2023-04-23T12:13:33.428Z,99386.91
2023-04-23T12:16:04.588Z,99384.91
2023-04-23T12:18:38.637Z,99388.66
2023-04-23T12:21:07.247Z,99382.88
2023-04-23T12:23:36.179Z,99377.06
2023-04-23T12:26:04.154Z,99384.81
2023-04-23T12:28:31.254Z,99379.84
2023-04-23T12:31:02.371Z,99374.09
2023-04-23T12:33:30.305Z,99372.88
2023-04-23T12:35:57.522Z,99374.78
2023-04-23T12:38:26.612Z,99374.59
2023-04-23T12:40:54.996Z,99366.28
2023-04-23T12:43:22.024Z,99372.53
2023-04-23T12:45:49.561Z,99367.97
2023-04-23T12:48:16.991Z,99368.81
2023-04-23T12:50:47.574Z,99368.44
2023-04-23T12:53:15.382Z,99362.00
2023-04-23T12:55:44.083Z,99357.44
2023-04-23T12:58:11.403Z,99362.88
2023-04-23T13:00:39.205Z,99361.00
2023-04-23T13:03:06.538Z,99362.09
2023-04-23T13:05:33.988Z,99364.56
2023-04-23T13:08:01.330Z,99365.00
2023-04-23T13:10:30.571Z,99359.81
2023-04-23T13:12:57.931Z,99363.75
2023-04-23T13:15:26.947Z,99351.31
2023-04-23T13:17:54.561Z,99357.97
2023-04-23T13:20:21.757Z,99360.66
2023-04-23T13:22:49.156Z,99355.88
2023-04-23T13:25:16.846Z,99351.34
2023-04-23T13:27:43.972Z,99360.03
2023-04-23T13:30:11.582Z,99355.28
2023-04-23T13:32:38.911Z,99353.81
2023-04-23T13:35:06.712Z,99352.16
2023-04-23T13:37:34.230Z,99352.97
2023-04-23T13:40:01.460Z,99357.94
2023-04-23T13:42:28.771Z,99357.13
2023-04-23T13:44:56.598Z,99367.28
2023-04-23T13:47:23.912Z,99365.84
2023-04-23T13:49:51.399Z,99350.03
2023-04-23T13:52:18.689Z,99362.28
2023-04-23T13:54:47.815Z,99352.50
2023-04-23T13:57:15.315Z,99351.22
2023-04-23T13:59:42.510Z,99353.69
2023-04-23T14:02:10.299Z,99353.22
2023-04-23T14:04:39.411Z,99358.59
2023-04-23T14:07:06.741Z,99356.84
2023-04-23T14:09:34.192Z,99358.28
2023-04-23T14:12:01.485Z,99358.44
2023-04-23T14:14:28.891Z,99351.59
2023-04-23T14:16:55.977Z,99357.38
2023-04-23T14:19:25.938Z,99351.72
2023-04-23T14:21:53.388Z,99359.38
2023-04-23T14:24:27.403Z,99362.06
2023-04-23T14:26:55.446Z,99361.16
2023-04-23T14:29:53.296Z,99358.25
2023-04-23T14:32:20.956Z,99364.16
2023-04-23T14:34:47.998Z,99353.75
2023-04-23T14:37:17.176Z,99357.41
2023-04-23T14:39:44.795Z,99352.00
2023-04-23T14:42:12.278Z,99355.91
2023-04-23T14:44:39.250Z,99349.69
2023-04-23T14:47:08.603Z,99350.91
2023-04-23T14:49:36.058Z,99350.66
2023-04-23T14:52:04.270Z,99350.53
2023-04-23T14:54:31.326Z,99352.38
2023-04-23T14:56:58.653Z,99345.50
2023-04-23T14:59:26.017Z,99339.50
2023-04-23T15:01:53.096Z,99340.09
2023-04-23T15:04:20.769Z,99331.69
2023-04-23T15:06:48.141Z,99344.88
2023-04-23T15:09:15.647Z,99339.13
2023-04-23T15:11:43.246Z,99341.75
2023-04-23T15:14:27.088Z,99347.25
2023-04-23T15:16:54.470Z,99343.03
2023-04-23T15:19:21.430Z,99336.94
2023-04-23T15:21:48.794Z,99333.34
2023-04-23T15:24:16.581Z,99340.50
2023-04-23T15:26:45.200Z,99336.72
2023-04-23T15:29:13.144Z,99331.44
2023-04-23T15:31:41.569Z,99329.34
2023-04-23T15:34:09.756Z,99330.81
2023-04-23T15:36:37.703Z,99329.03
2023-04-23T15:39:06.801Z,99329.50
2023-04-23T15:41:37.036Z,99323.44
2023-04-23T15:44:06.136Z,99329.59
2023-04-23T15:46:33.863Z,99324.34
2023-04-23T15:49:00.922Z,99319.50
2023-04-23T15:51:28.639Z,99315.63
2023-04-23T15:53:56.009Z,99322.50
2023-04-23T15:56:23.970Z,99318.03
2023-04-23T15:58:51.123Z,99325.41
2023-04-23T16:01:18.460Z,99321.13
2023-04-23T16:03:53.766Z,99323.56
2023-04-23T16:06:29.172Z,99323.91
2023-04-23T16:08:56.425Z,99317.44
2023-04-23T16:11:27.575Z,99321.72
2023-04-23T16:13:56.668Z,99313.16
2023-04-23T16:16:24.094Z,99319.28
2023-04-23T16:18:51.487Z,99313.66
2023-04-23T16:21:18.564Z,99312.19
2023-04-23T16:23:45.870Z,99320.31
2023-04-23T16:26:13.221Z,99316.06
2023-04-23T16:28:41.142Z,99310.31
2023-04-23T16:31:08.763Z,99310.38
2023-04-23T16:33:36.244Z,99305.94
2023-04-23T16:36:03.857Z,99295.91
2023-04-23T16:38:31.439Z,99298.31
2023-04-23T16:40:58.492Z,99295.03
2023-04-23T16:43:27.236Z,99290.13
2023-04-23T16:45:54.379Z,99295.72
2023-04-23T16:48:21.809Z,99294.78
2023-04-23T16:50:49.100Z,99294.19
2023-04-23T16:53:17.248Z,99287.16
2023-04-23T16:55:44.658Z,99292.06
2023-04-23T16:58:11.868Z,99291.47
2023-04-23T17:00:38.921Z,99297.88
2023-04-23T17:03:06.198Z,99291.59
2023-04-23T17:05:34.028Z,99297.16
2023-04-23T17:08:01.102Z,99289.66
2023-04-23T17:10:28.221Z,99289.97
2023-04-23T17:12:55.641Z,99298.53
2023-04-23T17:15:22.787Z,99289.38
2023-04-23T17:17:50.084Z,99282.03
2023-04-23T17:20:17.427Z,99287.91
2023-04-23T17:22:44.687Z,99274.75
2023-04-23T17:25:11.906Z,99275.72
2023-04-23T17:27:39.292Z,99276.44
2023-04-23T17:30:07.404Z,99269.75
2023-04-23T17:32:34.708Z,99266.59
2023-04-23T17:35:10.332Z,99264.59
2023-04-23T17:37:39.138Z,99263.28
2023-04-23T17:40:06.981Z,99257.63
2023-04-23T17:42:34.467Z,99256.47
2023-04-23T17:45:01.456Z,99255.13
2023-04-23T17:47:29.112Z,99250.31
2023-04-23T17:49:56.827Z,99249.78
2023-04-23T17:52:23.984Z,99248.31
2023-04-23T17:54:51.011Z,99243.13
2023-04-23T17:57:18.626Z,99238.31
2023-04-23T17:59:46.029Z,99235.81
2023-04-23T18:02:13.399Z,99227.44
2023-04-23T18:04:42.456Z,99221.59
2023-04-23T18:07:10.687Z,99213.09
2023-04-23T18:09:37.940Z,99216.25
2023-04-23T18:12:06.036Z,99212.25
2023-04-23T18:14:33.246Z,99202.09
2023-04-23T18:17:00.968Z,99210.47
2023-04-23T18:19:29.711Z,99200.59
2023-04-23T18:22:01.484Z,99198.94
2023-04-23T18:24:28.596Z,99192.94
2023-04-23T18:26:58.144Z,99186.09
2023-04-23T18:29:26.230Z,99182.41
2023-04-23T18:31:53.491Z,99173.06
2023-04-23T18:34:20.897Z,99172.06
2023-04-23T18:36:48.914Z,99172.06
2023-04-23T18:39:16.527Z,99170.41
2023-04-23T18:41:44.534Z,99165.38
2023-04-23T18:44:13.901Z,99160.03
2023-04-23T18:46:41.605Z,99155.84
2023-04-23T18:49:23.912Z,99159.06
2023-04-23T18:51:51.136Z,99146.34
2023-04-23T18:54:18.122Z,99146.53
2023-04-23T18:56:45.405Z,99143.38
2023-04-23T18:59:13.128Z,99143.72
2023-04-23T19:01:40.457Z,99135.69
2023-04-23T19:04:07.745Z,99132.53
2023-04-23T19:06:35.056Z,99126.19
2023-04-23T19:09:02.262Z,99122.03
2023-04-23T19:11:34.168Z,99116.34
2023-04-23T19:14:01.675Z,99116.03
2023-04-23T19:16:29.364Z,99118.69
2023-04-23T19:18:56.832Z,99114.31
2023-04-23T19:21:24.142Z,99116.03
2023-04-23T19:23:53.562Z,99118.69
2023-04-23T19:26:20.589Z,99112.16
2023-04-23T19:28:48.251Z,99104.84
2023-04-23T19:31:15.569Z,99099.50
2023-04-23T19:33:45.213Z,99095.50
2023-04-23T19:36:12.590Z,99090.69
2023-04-23T19:38:39.971Z,99079.47
2023-04-23T19:41:07.561Z,99078.00
2023-04-23T19:43:34.752Z,99076.97
2023-04-23T19:46:01.999Z,99077.31
2023-04-23T19:48:29.396Z,99073.16
2023-04-23T19:50:57.065Z,99080.69
2023-04-23T19:53:24.227Z,99080.31
2023-04-23T19:55:51.403Z,99079.00
2023-04-23T19:58:19.077Z,99078.34
2023-04-23T20:00:46.422Z,99071.34
2023-04-23T20:03:13.773Z,99072.69
2023-04-23T20:05:43.317Z,99079.19
2023-04-23T20:08:25.915Z,99072.50
2023-04-23T20:10:53.984Z,99065.16
2023-04-23T20:13:21.227Z,99049.97
2023-04-23T20:15:49.983Z,99053.97
2023-04-23T20:18:18.145Z,99047.97
2023-04-23T20:20:45.888Z,99048.50
2023-04-23T20:23:12.998Z,99053.47
2023-04-23T20:25:40.192Z,99049.81
2023-04-23T20:28:07.588Z,99058.31
2023-04-23T20:30:36.025Z,99053.44
2023-04-23T20:33:03.559Z,99060.09
2023-04-23T20:35:31.286Z,99054.28
2023-04-23T20:37:58.327Z,99057.59
2023-04-23T20:40:26.684Z,99062.25
2023-04-23T20:42:54.184Z,99060.75
2023-04-23T20:45:22.406Z,99063.56
2023-04-23T20:47:50.952Z,99052.56
2023-04-23T20:50:18.411Z,99047.88
2023-04-23T20:52:45.622Z,99051.38
2023-04-23T20:55:12.603Z,99054.34
2023-04-23T20:57:39.734Z,99048.53
2023-04-23T21:00:11.288Z,99051.66
2023-04-23T21:02:39.176Z,99053.13
2023-04-23T21:05:07.757Z,99055.97
2023-04-23T21:07:36.819Z,99061.63
2023-04-23T21:10:04.674Z,99057.41
2023-04-23T21:12:31.812Z,99062.06
2023-04-23T21:14:59.217Z,99051.75
2023-04-23T21:17:26.606Z,99057.41
2023-04-23T21:19:54.148Z,99054.06
2023-04-23T21:22:21.772Z,99048.91
2023-04-23T21:24:48.875Z,99050.72
2023-04-23T21:27:20.984Z,99049.75
2023-04-23T21:29:48.811Z,99042.41
2023-04-23T21:32:16.129Z,99042.41
2023-04-23T21:34:43.248Z,99040.75
2023-04-23T21:37:10.826Z,99044.09
2023-04-23T21:39:37.930Z,99044.91
2023-04-23T21:42:05.342Z,99032.44
2023-04-23T21:44:35.559Z,99031.44
2023-04-23T21:47:03.581Z,99024.94
2023-04-23T21:49:31.278Z,99030.44
2023-04-23T21:52:00.165Z,99038.19
2023-04-23T21:54:27.207Z,99026.53
2023-04-23T21:56:54.473Z,99029.81
2023-04-23T21:59:23.607Z,99018.66
2023-04-23T22:01:51.230Z,99016.31
2023-04-23T22:04:18.919Z,99020.28
2023-04-23T22:06:46.270Z,99015.81
2023-04-23T22:09:14.123Z,99015.28
2023-04-23T22:11:46.271Z,99021.44
2023-04-23T22:14:19.375Z,99013.59
2023-04-23T22:16:47.108Z,99006.59
2023-04-23T22:19:15.983Z,99003.09
2023-04-23T22:21:43.420Z,99001.59
2023-04-23T22:24:10.912Z,98999.94
2023-04-23T22:26:37.795Z,99001.59
2023-04-23T22:29:05.181Z,98995.44
2023-04-23T22:31:32.438Z,98991.78
2023-04-23T22:33:59.978Z,98989.97
2023-04-23T22:36:28.390Z,98999.63
2023-04-23T22:38:56.214Z,98991.47
2023-04-23T22:41:23.360Z,98984.47
2023-04-23T22:43:52.158Z,98976.03
2023-04-23T22:46:19.174Z,98977.38
2023-04-23T22:48:47.294Z,98984.56
2023-04-23T22:51:14.443Z,98978.44
2023-04-23T22:53:42.117Z,98980.28
2023-04-23T22:56:09.466Z,98979.34
2023-04-23T22:58:37.365Z,98978.69
2023-04-23T23:01:04.649Z,98972.56
2023-04-23T23:03:32.556Z,98967.06
2023-04-23T23:06:00.245Z,98968.59
2023-04-23T23:08:27.601Z,98964.94
2023-04-23T23:10:55.395Z,98962.47
2023-04-23T23:13:23.221Z,98965.16
2023-04-23T23:15:50.613Z,98972.13
2023-04-23T23:18:20.812Z,98965.38
2023-04-23T23:20:48.173Z,98971.72
2023-04-23T23:23:15.242Z,98975.19
2023-04-23T23:25:42.456Z,98971.19
2023-04-23T23:28:10.137Z,98971.41
2023-04-23T23:30:37.286Z,98976.53
2023-04-23T23:33:05.130Z,98962.44
2023-04-23T23:35:32.120Z,98965.00
2023-04-23T23:37:59.702Z,98955.75
2023-04-23T23:40:27.479Z,98956.78
2023-04-23T23:42:54.922Z,98961.84
2023-04-23T23:45:21.899Z,98953.78
2023-04-23T23:47:48.987Z,98957.31
2023-04-23T23:50:16.238Z,98967.19
2023-04-23T23:52:43.433Z,98965.41
2023-04-23T23:55:11.709Z,98963.84
2023-04-23T23:57:38.746Z,98965.47
